首页
METAR-TAF:

METAR-TAF

机场 :

Adirondack Regional Airport

Saranac Lake, 紐約州, 美国

纬度: 44-23-35N, 经度: 074-12-10W, 海拔: 507米

当前天气观测

该预报发布于56分钟前的20:51 UTC
风速6节,风向多变
温度 24°C
湿度 65%
气压 1010 hPa
能見度: 16.1公里
多云层高于4200英尺
多云层高于5500英尺

METAR: KSLK 212051Z AUTO VRB06KT 10SM BKN042 BKN055 24/17 A2983 RMK AO2 SLP090 T02390172 53006

时间: 17:47 (21:47 UTC)

预报

该预报发布于4小时和27分钟前的17:20 UTC
预报有效从21日的 18点(UTC)到 22日的 18点(UTC)
风速8节,风向西
能見度: 10公里
多云层高于5000英尺
从 21日的 2100点(UTC)
风速8节,风向西
能見度: 10公里
散云层高于8000英尺
附近有阵雨
从 22日的 0000点(UTC)
风速3节,风向西
能見度: 10公里
少量云层高于8000英尺
从 22日的 0400点(UTC)
风速节,风向
能見度: 0.4公里
层高于200英尺
从 22日的 1300点(UTC)
风速节,风向
能見度: 10公里
多云层高于12000英尺

TAF: KSLK 211720Z 2118/2218 28008KT P6SM BKN050 FM212100 28008KT P6SM VCSH SCT080 FM220000 28003KT P6SM FEW080 FM220400 00000KT 1/4SM FG VV002 FM221300 00000KT P6SM BKN120

超过4000个机场的气象观测和天气预报(METAR&TAF报告)。

可查询的气象台以黄色和红色小点在地图上表示。

将鼠标移到小点上方,可查看气象台名称。

然后点击查看天气观测和预报。

如需切换地图:点击带黑十字的绿色按钮放大地图;点击带横线的绿色按钮缩小地图;或者点击绿色箭头查看邻近地区的地图。


METAR-TAF: